createdAt,value
2022-10-12T00:02:06.762Z,2.38
2022-10-12T00:04:33.757Z,2.28
2022-10-12T00:07:00.446Z,2.55
2022-10-12T00:09:27.317Z,1.90
2022-10-12T00:11:54.293Z,2.50
2022-10-12T00:14:21.089Z,1.98
2022-10-12T00:16:47.791Z,2.13
2022-10-12T00:19:14.586Z,2.30
2022-10-12T00:21:41.528Z,2.08
2022-10-12T00:24:09.635Z,2.20
2022-10-12T00:26:36.571Z,2.20
2022-10-12T00:29:04.400Z,3.00
2022-10-12T00:31:31.519Z,2.10
2022-10-12T00:34:01.362Z,2.35
2022-10-12T00:36:32.567Z,2.25
2022-10-12T00:38:59.949Z,2.00
2022-10-12T00:41:29.410Z,2.58
2022-10-12T00:43:58.482Z,2.10
2022-10-12T00:46:35.476Z,2.58
2022-10-12T00:49:20.696Z,2.10
2022-10-12T00:52:02.622Z,2.00
2022-10-12T00:54:33.511Z,2.50
2022-10-12T00:57:02.755Z,1.73
2022-10-12T00:59:33.684Z,1.90
2022-10-12T01:02:00.577Z,1.80
2022-10-12T01:04:27.358Z,2.10
2022-10-12T01:06:54.108Z,1.98
2022-10-12T01:09:21.429Z,1.88
2022-10-12T01:11:48.899Z,1.77
2022-10-12T01:14:17.149Z,2.13
2022-10-12T01:17:01.114Z,2.00
2022-10-12T01:19:56.371Z,2.22
2022-10-12T01:22:25.897Z,1.77
2022-10-12T01:24:53.587Z,1.80
2022-10-12T01:27:41.746Z,1.83
2022-10-12T01:30:09.689Z,2.17
2022-10-12T01:32:36.350Z,1.85
2022-10-12T01:35:29.175Z,1.73
2022-10-12T01:38:24.421Z,1.70
2022-10-12T01:41:22.102Z,1.90
2022-10-12T01:43:51.189Z,1.98
2022-10-12T01:46:20.827Z,2.25
2022-10-12T01:48:51.425Z,3.03
2022-10-12T01:51:29.374Z,1.95
2022-10-12T01:56:57.530Z,2.42
2022-10-12T01:59:48.598Z,1.50
2022-10-12T02:02:21.860Z,2.35
2022-10-12T02:04:54.185Z,2.30
2022-10-12T02:07:35.086Z,1.80
2022-10-12T02:10:05.504Z,2.35
2022-10-12T02:12:35.181Z,1.95
2022-10-12T02:15:06.526Z,2.33
2022-10-12T02:17:35.352Z,2.13
2022-10-12T02:20:03.843Z,1.83
2022-10-12T02:22:36.834Z,2.08
2022-10-12T02:25:11.102Z,2.13
2022-10-12T02:27:42.437Z,2.40
2022-10-12T02:30:10.479Z,2.35
2022-10-12T02:32:46.896Z,2.83
2022-10-12T02:35:31.572Z,2.20
2022-10-12T02:38:20.292Z,3.05
2022-10-12T02:40:52.627Z,2.55
2022-10-12T02:43:33.211Z,2.53
2022-10-12T02:46:01.547Z,2.60
2022-10-12T02:48:29.431Z,2.72
2022-10-12T02:50:58.528Z,2.75
2022-10-12T02:53:27.860Z,2.45
2022-10-12T02:56:00.052Z,2.65
2022-10-12T02:58:26.770Z,2.75
2022-10-12T03:00:53.505Z,2.72
2022-10-12T03:03:20.352Z,3.00
2022-10-12T03:05:47.076Z,3.15
2022-10-12T03:08:13.661Z,2.92
2022-10-12T03:10:40.370Z,2.80
2022-10-12T03:13:07.065Z,2.63
2022-10-12T03:15:33.918Z,2.63
2022-10-12T03:18:00.549Z,2.83
2022-10-12T03:20:27.368Z,2.70
2022-10-12T03:22:54.187Z,3.13
2022-10-12T03:25:21.033Z,2.97
2022-10-12T03:27:47.693Z,2.55
2022-10-12T03:30:15.155Z,3.00
2022-10-12T03:32:41.864Z,3.67
2022-10-12T03:35:09.087Z,2.47
2022-10-12T03:37:36.396Z,3.05
2022-10-12T03:40:03.612Z,2.55
2022-10-12T03:42:30.252Z,2.50
2022-10-12T03:44:57.057Z,3.25
2022-10-12T03:47:23.776Z,2.75
2022-10-12T03:49:50.554Z,2.63
2022-10-12T03:52:17.230Z,2.90
2022-10-12T03:54:44.094Z,3.30
2022-10-12T03:57:10.809Z,3.53
2022-10-12T03:59:37.534Z,2.72
2022-10-12T04:02:04.264Z,2.63
2022-10-12T04:04:31.063Z,2.53
2022-10-12T04:06:57.692Z,3.03
2022-10-12T04:09:24.472Z,2.95
2022-10-12T04:11:51.076Z,3.10
2022-10-12T04:14:17.820Z,3.50
2022-10-12T04:16:44.498Z,2.92
2022-10-12T04:19:14.827Z,3.05
2022-10-12T04:21:41.708Z,2.78
2022-10-12T04:24:08.422Z,3.40
2022-10-12T04:26:35.135Z,3.28
2022-10-12T04:29:01.768Z,3.25
2022-10-12T04:31:28.468Z,2.92
2022-10-12T04:33:57.001Z,2.95
2022-10-12T04:36:27.264Z,3.05
2022-10-12T04:38:58.413Z,2.92
2022-10-12T04:41:27.535Z,3.05
2022-10-12T04:43:54.493Z,3.33
2022-10-12T04:46:21.703Z,2.80
2022-10-12T04:48:48.346Z,2.83
2022-10-12T04:51:15.320Z,2.97
2022-10-12T04:53:42.150Z,3.67
2022-10-12T04:56:09.147Z,3.72
2022-10-12T04:58:35.792Z,3.47
2022-10-12T05:01:02.530Z,3.58
2022-10-12T05:03:29.404Z,3.08
2022-10-12T05:05:56.134Z,2.92
2022-10-12T05:08:22.815Z,2.67
2022-10-12T05:10:49.475Z,3.47
2022-10-12T05:13:16.271Z,3.72
2022-10-12T05:15:43.924Z,3.63
2022-10-12T05:18:10.930Z,3.45
2022-10-12T05:20:37.714Z,3.58
2022-10-12T05:23:04.721Z,3.78
2022-10-12T05:25:31.633Z,3.30
2022-10-12T05:27:59.190Z,3.65
2022-10-12T05:30:26.126Z,3.53
2022-10-12T05:32:52.891Z,4.05
2022-10-12T05:35:19.943Z,4.03
2022-10-12T05:37:46.914Z,4.00
2022-10-12T05:40:13.783Z,3.70
2022-10-12T05:42:40.788Z,3.85
2022-10-12T05:45:07.933Z,4.03
2022-10-12T05:47:34.695Z,4.35
2022-10-12T05:50:01.316Z,3.40
2022-10-12T05:52:27.995Z,3.50
2022-10-12T05:54:54.722Z,3.47
2022-10-12T05:57:21.422Z,4.07
2022-10-12T05:59:48.131Z,3.63
2022-10-12T06:02:16.629Z,3.38
2022-10-12T06:04:43.565Z,3.50
2022-10-12T06:07:10.192Z,3.67
2022-10-12T06:09:39.844Z,4.13
2022-10-12T06:12:07.498Z,3.22
2022-10-12T06:14:34.407Z,3.80
2022-10-12T06:17:01.040Z,3.40
2022-10-12T06:19:27.721Z,3.42
2022-10-12T06:21:54.350Z,3.05
2022-10-12T06:24:21.041Z,3.08
2022-10-12T06:26:47.711Z,3.17
2022-10-12T06:29:14.472Z,2.83
2022-10-12T06:31:41.259Z,3.00
2022-10-12T06:34:08.125Z,2.95
2022-10-12T06:36:34.892Z,4.13
2022-10-12T06:39:02.348Z,3.28
2022-10-12T06:41:29.064Z,3.00
2022-10-12T06:43:55.679Z,3.63
2022-10-12T06:46:22.457Z,3.10
2022-10-12T06:48:49.110Z,3.10
2022-10-12T06:51:15.785Z,2.80
2022-10-12T06:53:42.463Z,3.05
2022-10-12T06:56:10.687Z,3.08
2022-10-12T06:58:38.091Z,3.10
2022-10-12T07:01:06.664Z,3.08
2022-10-12T07:03:33.854Z,2.97
2022-10-12T07:06:14.216Z,4.05
2022-10-12T07:08:42.146Z,3.20
2022-10-12T07:11:10.853Z,2.92
2022-10-12T07:13:38.113Z,3.55
2022-10-12T07:16:05.179Z,3.15
2022-10-12T07:18:31.949Z,3.25
2022-10-12T07:20:59.777Z,2.75
2022-10-12T07:23:27.373Z,3.53
2022-10-12T07:25:54.366Z,2.85
2022-10-12T07:28:21.975Z,3.17
2022-10-12T07:30:48.973Z,2.97
2022-10-12T07:33:15.683Z,3.00
2022-10-12T07:36:03.432Z,3.22
2022-10-12T07:38:29.691Z,2.63
2022-10-12T07:40:59.522Z,3.55
2022-10-12T07:43:26.721Z,3.75
2022-10-12T07:45:53.516Z,2.90
2022-10-12T07:48:20.774Z,3.13
2022-10-12T07:50:47.661Z,3.00
2022-10-12T07:53:14.339Z,3.08
2022-10-12T07:55:41.085Z,2.80
2022-10-12T07:58:07.781Z,3.10
2022-10-12T08:00:34.544Z,3.30
2022-10-12T08:03:01.319Z,2.78
2022-10-12T08:05:27.956Z,2.80
2022-10-12T08:07:55.464Z,2.63
2022-10-12T08:10:22.612Z,2.72
2022-10-12T08:12:52.113Z,2.80
2022-10-12T08:15:19.342Z,2.63
2022-10-12T08:17:46.066Z,2.50
2022-10-12T08:20:12.947Z,2.88
2022-10-12T08:22:39.577Z,2.25
2022-10-12T08:25:06.805Z,2.60
2022-10-12T08:27:33.532Z,2.28
2022-10-12T08:30:00.282Z,2.17
2022-10-12T08:32:27.229Z,2.30
2022-10-12T08:34:54.114Z,2.45
2022-10-12T08:37:20.890Z,2.20
2022-10-12T08:39:47.523Z,1.50
2022-10-12T08:42:40.540Z,1.90
2022-10-12T08:45:13.354Z,1.50
2022-10-12T08:47:43.791Z,2.03
2022-10-12T08:50:29.134Z,1.95
2022-10-12T08:53:01.060Z,2.03
2022-10-12T08:55:43.731Z,1.65
2022-10-12T08:58:20.671Z,1.35
2022-10-12T09:00:57.434Z,1.30
2022-10-12T09:03:24.058Z,1.30
2022-10-12T09:06:17.592Z,1.42
2022-10-12T09:09:01.410Z,1.60
2022-10-12T09:11:46.357Z,1.90
2022-10-12T09:14:21.075Z,1.73
2022-10-12T09:16:49.196Z,1.70
2022-10-12T09:19:20.433Z,2.33
2022-10-12T09:21:48.839Z,1.75
2022-10-12T09:24:22.356Z,2.08
2022-10-12T09:26:53.681Z,1.80
2022-10-12T09:29:31.193Z,2.72
2022-10-12T09:32:13.116Z,2.40
2022-10-12T09:34:40.056Z,2.47
2022-10-12T09:37:12.236Z,2.92
2022-10-12T09:39:40.732Z,2.38
2022-10-12T09:42:10.699Z,3.05
2022-10-12T09:44:48.003Z,2.53
2022-10-12T09:47:33.559Z,2.50
2022-10-12T09:50:05.741Z,2.85
2022-10-12T09:52:35.451Z,2.15
2022-10-12T09:55:05.786Z,2.90
2022-10-12T09:57:37.974Z,3.10
2022-10-12T10:00:22.282Z,3.15
2022-10-12T10:02:51.235Z,2.70
2022-10-12T10:05:26.964Z,2.63
2022-10-12T10:08:14.453Z,2.08
2022-10-12T10:10:52.559Z,2.63
2022-10-12T10:13:21.908Z,1.70
2022-10-12T10:16:01.893Z,1.90
2022-10-12T10:18:38.600Z,1.85
2022-10-12T10:21:09.245Z,1.95
2022-10-12T10:23:42.443Z,1.80
2022-10-12T10:26:15.829Z,1.88
2022-10-12T10:28:45.318Z,2.65
2022-10-12T10:31:17.023Z,1.92
2022-10-12T10:33:44.416Z,2.22
2022-10-12T10:36:26.597Z,2.50
2022-10-12T10:39:00.002Z,2.35
2022-10-12T10:41:33.173Z,2.20
2022-10-12T10:43:59.998Z,2.10
2022-10-12T10:46:30.682Z,2.13
2022-10-12T10:49:06.886Z,2.35
2022-10-12T10:51:57.918Z,2.10
2022-10-12T10:54:24.664Z,2.38
2022-10-12T10:56:55.577Z,2.72
2022-10-12T10:59:42.232Z,2.53
2022-10-12T11:02:18.980Z,2.13
2022-10-12T11:04:50.085Z,2.53
2022-10-12T11:07:20.844Z,2.58
2022-10-12T11:09:53.269Z,2.28
2022-10-12T11:12:31.073Z,1.60
2022-10-12T11:15:22.861Z,2.30
2022-10-12T11:17:55.850Z,2.30
2022-10-12T11:20:29.837Z,2.15
2022-10-12T11:23:09.232Z,2.40
2022-10-12T11:25:57.209Z,2.10
2022-10-12T11:28:28.842Z,2.17
2022-10-12T11:30:55.812Z,1.98
2022-10-12T11:33:26.632Z,2.25
2022-10-12T11:35:55.342Z,2.35
2022-10-12T11:38:37.328Z,2.20
2022-10-12T11:42:09.315Z,2.33
2022-10-12T11:44:44.550Z,2.58
2022-10-12T11:47:41.657Z,2.35
2022-10-12T11:50:29.507Z,2.17
2022-10-12T11:52:58.407Z,2.53
2022-10-12T11:55:55.550Z,1.73
2022-10-12T11:58:42.054Z,2.28
2022-10-12T12:01:33.486Z,2.13
2022-10-12T12:04:40.501Z,1.80
2022-10-12T12:07:36.414Z,1.83
2022-10-12T12:10:31.591Z,1.92
2022-10-12T12:13:11.344Z,1.35
2022-10-12T12:15:40.433Z,1.58
2022-10-12T12:18:29.421Z,1.73
2022-10-12T12:21:02.532Z,2.17
2022-10-12T12:23:39.220Z,1.20
2022-10-12T12:26:16.549Z,2.30
2022-10-12T12:31:24.629Z,2.80
2022-10-12T12:34:15.562Z,2.47
2022-10-12T12:36:45.091Z,2.00
2022-10-12T12:39:30.923Z,2.30
2022-10-12T12:42:02.769Z,2.00
2022-10-12T12:44:41.909Z,1.80
2022-10-12T12:47:33.092Z,1.95
2022-10-12T12:50:09.303Z,2.58
2022-10-12T12:52:39.778Z,1.92
2022-10-12T12:55:37.678Z,2.40
2022-10-12T12:58:24.869Z,1.60
2022-10-12T13:01:13.654Z,1.67
2022-10-12T13:04:02.435Z,1.70
2022-10-12T13:06:58.569Z,1.88
2022-10-12T13:09:47.414Z,1.58
2022-10-12T13:12:22.649Z,1.80
2022-10-12T13:15:09.051Z,2.63
2022-10-12T13:17:57.647Z,2.05
2022-10-12T13:20:34.404Z,1.55
2022-10-12T13:23:05.358Z,1.60
2022-10-12T13:25:58.412Z,2.03
2022-10-12T13:28:30.595Z,2.08
2022-10-12T13:31:08.043Z,1.42
2022-10-12T13:33:56.247Z,1.58
2022-10-12T13:36:29.450Z,1.55
2022-10-12T13:38:59.051Z,1.63
2022-10-12T13:41:30.332Z,1.95
2022-10-12T13:46:48.661Z,1.45
2022-10-12T13:49:24.685Z,1.52
2022-10-12T13:51:54.334Z,1.15
2022-10-12T13:54:24.673Z,1.17
2022-10-12T13:56:58.628Z,1.23
2022-10-12T13:59:28.373Z,1.20
2022-10-12T14:02:00.594Z,0.82
2022-10-12T14:04:33.267Z,1.02
2022-10-12T14:07:04.046Z,1.30
2022-10-12T14:09:41.281Z,1.90
2022-10-12T14:12:09.533Z,1.38
2022-10-12T14:14:37.997Z,1.00
2022-10-12T14:17:04.848Z,1.20
2022-10-12T14:19:42.825Z,1.52
2022-10-12T14:22:09.775Z,1.20
2022-10-12T14:24:37.001Z,1.17
2022-10-12T14:27:08.440Z,1.40
2022-10-12T14:32:05.537Z,1.85
2022-10-12T14:34:33.939Z,1.15
2022-10-12T14:37:01.089Z,1.05
2022-10-12T14:39:28.113Z,1.33
2022-10-12T14:41:54.754Z,1.17
2022-10-12T14:44:22.860Z,1.30
2022-10-12T14:47:07.044Z,1.08
2022-10-12T14:49:37.732Z,1.20
2022-10-12T14:52:05.242Z,2.22
2022-10-12T14:54:32.025Z,1.42
2022-10-12T14:57:18.771Z,1.60
2022-10-12T14:59:46.470Z,1.38
2022-10-12T15:02:19.916Z,1.98
2022-10-12T15:04:47.256Z,1.30
2022-10-12T15:07:26.254Z,1.23
2022-10-12T15:09:53.353Z,1.33
2022-10-12T15:12:22.882Z,1.30
2022-10-12T15:14:55.856Z,1.38
2022-10-12T15:17:23.231Z,1.38
2022-10-12T15:19:51.559Z,1.25
2022-10-12T15:22:24.039Z,1.73
2022-10-12T15:24:52.512Z,1.58
2022-10-12T15:27:19.731Z,2.75
2022-10-12T15:29:48.421Z,2.50
2022-10-12T15:32:17.602Z,3.05
2022-10-12T15:34:45.234Z,3.22
2022-10-12T15:37:12.401Z,2.47
2022-10-12T15:39:39.529Z,2.03
2022-10-12T15:42:06.783Z,1.75
2022-10-12T15:44:40.083Z,2.53
2022-10-12T15:47:06.776Z,1.98
2022-10-12T15:49:33.569Z,2.10
2022-10-12T15:52:00.449Z,1.80
2022-10-12T15:54:27.974Z,1.90
2022-10-12T15:56:54.664Z,1.52
2022-10-12T15:59:21.401Z,1.30
2022-10-12T16:01:48.253Z,2.00
2022-10-12T16:04:15.585Z,1.67
2022-10-12T16:06:42.408Z,1.40
2022-10-12T16:09:09.481Z,1.65
2022-10-12T16:11:36.423Z,1.40
2022-10-12T16:14:03.147Z,1.75
2022-10-12T16:16:31.841Z,1.40
2022-10-12T16:18:58.792Z,1.33
2022-10-12T16:21:25.549Z,1.70
2022-10-12T16:23:52.712Z,1.42
2022-10-12T16:26:19.540Z,1.55
2022-10-12T16:28:46.288Z,1.58
2022-10-12T16:31:15.819Z,1.77
2022-10-12T16:33:42.930Z,2.00
2022-10-12T16:36:15.176Z,2.03
2022-10-12T16:38:42.997Z,1.50
2022-10-12T16:41:12.352Z,1.75
2022-10-12T16:43:39.296Z,1.90
2022-10-12T16:46:06.905Z,1.65
2022-10-12T16:48:33.996Z,1.45
2022-10-12T16:51:00.943Z,1.95
2022-10-12T16:53:27.662Z,1.65
2022-10-12T16:55:54.379Z,2.13
2022-10-12T16:58:21.300Z,1.48
2022-10-12T17:00:48.119Z,1.83
2022-10-12T17:03:14.978Z,2.17
2022-10-12T17:05:43.083Z,2.13
2022-10-12T17:08:15.008Z,1.73
2022-10-12T17:10:43.883Z,2.58
2022-10-12T17:13:10.843Z,3.15
2022-10-12T17:15:41.613Z,2.83
2022-10-12T17:18:09.101Z,2.58
2022-10-12T17:20:36.777Z,1.85
2022-10-12T17:23:03.629Z,2.30
2022-10-12T17:25:30.417Z,2.00
2022-10-12T17:27:57.179Z,2.85
2022-10-12T17:30:24.017Z,1.88
2022-10-12T17:32:50.856Z,2.30
2022-10-12T17:35:17.669Z,2.47
2022-10-12T17:37:44.371Z,2.05
2022-10-12T17:40:11.503Z,1.95
2022-10-12T17:42:38.244Z,2.20
2022-10-12T17:45:05.412Z,2.42
2022-10-12T17:47:32.130Z,3.05
2022-10-12T17:49:58.916Z,2.42
2022-10-12T17:52:25.555Z,2.00
2022-10-12T17:54:52.277Z,2.40
2022-10-12T17:57:19.381Z,2.85
2022-10-12T17:59:46.482Z,2.13
2022-10-12T18:02:13.515Z,2.20
2022-10-12T18:04:40.413Z,2.35
2022-10-12T18:07:07.137Z,2.03
2022-10-12T18:09:34.043Z,2.15
2022-10-12T18:12:00.827Z,2.28
2022-10-12T18:14:27.652Z,2.63
2022-10-12T18:16:54.522Z,2.40
2022-10-12T18:19:21.357Z,2.90
2022-10-12T18:21:48.033Z,3.20
2022-10-12T18:24:17.877Z,2.85
2022-10-12T18:26:46.471Z,2.40
2022-10-12T18:29:13.407Z,2.40
2022-10-12T18:31:40.196Z,2.50
2022-10-12T18:34:06.868Z,2.53
2022-10-12T18:36:33.822Z,2.35
2022-10-12T18:39:02.285Z,2.55
2022-10-12T18:41:29.556Z,2.78
2022-10-12T18:43:58.020Z,3.17
2022-10-12T18:46:27.234Z,2.92
2022-10-12T18:48:54.015Z,3.00
2022-10-12T18:51:31.019Z,2.75
2022-10-12T18:54:00.772Z,3.72
2022-10-12T18:56:28.573Z,3.38
2022-10-12T18:58:56.921Z,3.70
2022-10-12T19:01:25.375Z,3.60
2022-10-12T19:03:54.301Z,3.40
2022-10-12T19:06:24.500Z,3.00
2022-10-12T19:08:51.658Z,3.53
2022-10-12T19:11:21.266Z,3.65
2022-10-12T19:13:53.527Z,3.38
2022-10-12T19:16:20.793Z,4.07
2022-10-12T19:18:48.011Z,3.45
2022-10-12T19:21:18.683Z,2.92
2022-10-12T19:23:46.322Z,3.58
2022-10-12T19:26:16.440Z,3.50
2022-10-12T19:28:43.564Z,3.58
2022-10-12T19:31:14.704Z,3.10
2022-10-12T19:33:41.865Z,3.58
2022-10-12T19:36:10.394Z,3.55
2022-10-12T19:38:37.899Z,3.85
2022-10-12T19:41:05.106Z,3.28
2022-10-12T19:43:36.147Z,3.53
2022-10-12T19:46:05.168Z,3.83
2022-10-12T19:48:31.800Z,3.20
2022-10-12T19:51:06.963Z,4.05
2022-10-12T19:53:33.839Z,3.10
2022-10-12T19:56:01.944Z,4.07
2022-10-12T19:58:29.063Z,3.33
2022-10-12T20:01:11.003Z,3.53
2022-10-12T20:03:38.629Z,3.17
2022-10-12T20:06:09.061Z,3.65
2022-10-12T20:08:40.869Z,3.13
2022-10-12T20:13:35.528Z,3.30
2022-10-12T20:16:02.730Z,3.75
2022-10-12T20:18:30.445Z,3.55
2022-10-12T20:20:58.345Z,4.28
2022-10-12T20:23:25.031Z,3.50
2022-10-12T20:25:53.389Z,3.88
2022-10-12T20:28:20.939Z,4.28
2022-10-12T20:30:48.447Z,3.97
2022-10-12T20:33:15.721Z,4.30
2022-10-12T20:35:47.603Z,3.78
2022-10-12T20:38:15.857Z,3.83
2022-10-12T20:40:43.035Z,3.40
2022-10-12T20:43:09.865Z,3.95
2022-10-12T20:45:36.890Z,3.58
2022-10-12T20:48:05.569Z,3.60
2022-10-12T20:50:32.557Z,3.33
2022-10-12T20:52:59.549Z,4.32
2022-10-12T20:55:26.316Z,3.90
2022-10-12T20:57:52.983Z,4.00
2022-10-12T21:00:19.833Z,3.65
2022-10-12T21:02:46.478Z,3.67
2022-10-12T21:05:13.175Z,3.78
2022-10-12T21:07:39.895Z,3.90
2022-10-12T21:10:07.106Z,3.90
2022-10-12T21:12:33.848Z,3.03
2022-10-12T21:15:00.568Z,3.17
2022-10-12T21:17:27.220Z,3.47
2022-10-12T21:19:54.150Z,3.13
2022-10-12T21:22:21.038Z,3.40
2022-10-12T21:24:47.949Z,2.72
2022-10-12T21:27:14.614Z,3.22
2022-10-12T21:29:41.275Z,3.38
2022-10-12T21:32:08.097Z,3.13
2022-10-12T21:34:34.732Z,3.75
2022-10-12T21:37:01.351Z,4.57
2022-10-12T21:39:28.118Z,3.88
2022-10-12T21:41:54.814Z,3.30
2022-10-12T21:44:21.500Z,3.42
2022-10-12T21:46:48.195Z,3.38
2022-10-12T21:49:14.792Z,2.75
2022-10-12T21:51:41.890Z,3.28
2022-10-12T21:54:08.807Z,3.40
2022-10-12T21:56:36.545Z,2.97
2022-10-12T21:59:04.573Z,3.25
2022-10-12T22:01:36.924Z,3.00
2022-10-12T22:04:21.760Z,3.47
2022-10-12T22:06:48.598Z,3.83
2022-10-12T22:09:19.188Z,3.63
2022-10-12T22:11:46.948Z,2.97
2022-10-12T22:14:16.579Z,2.90
2022-10-12T22:16:44.389Z,2.67
2022-10-12T22:19:15.228Z,3.03
2022-10-12T22:21:42.037Z,3.28
2022-10-12T22:24:08.907Z,2.85
2022-10-12T22:26:36.052Z,3.17
2022-10-12T22:29:05.040Z,3.20
2022-10-12T22:31:31.793Z,3.33
2022-10-12T22:33:58.491Z,3.13
2022-10-12T22:36:25.175Z,3.35
2022-10-12T22:38:52.083Z,2.83
2022-10-12T22:41:21.535Z,2.65
2022-10-12T22:43:50.050Z,2.92
2022-10-12T22:46:18.419Z,3.10
2022-10-12T22:48:45.637Z,3.25
2022-10-12T22:51:17.037Z,3.10
2022-10-12T22:53:44.054Z,3.25
2022-10-12T22:56:17.290Z,3.35
2022-10-12T22:58:44.759Z,3.33
2022-10-12T23:01:14.114Z,2.70
2022-10-12T23:03:41.726Z,2.63
2022-10-12T23:06:13.724Z,2.80
2022-10-12T23:08:41.020Z,2.80
2022-10-12T23:11:11.023Z,2.97
2022-10-12T23:13:38.786Z,3.30
2022-10-12T23:16:12.505Z,2.83
2022-10-12T23:18:40.229Z,2.72
2022-10-12T23:21:15.960Z,3.17
2022-10-12T23:23:43.930Z,3.45
2022-10-12T23:26:13.724Z,3.03
2022-10-12T23:28:40.819Z,3.33
2022-10-12T23:31:09.371Z,3.00
2022-10-12T23:33:36.104Z,2.70
2022-10-12T23:36:06.009Z,2.55
2022-10-12T23:38:34.565Z,3.38
2022-10-12T23:41:01.651Z,3.05
2022-10-12T23:43:28.648Z,2.25
2022-10-12T23:45:55.985Z,3.58
2022-10-12T23:48:23.324Z,3.15
2022-10-12T23:50:51.877Z,2.72
2022-10-12T23:53:20.180Z,3.03
2022-10-12T23:55:47.771Z,3.10
2022-10-12T23:58:14.520Z,2.95
